Time;durP1;ratioP1;P1;durP2;ratioP2;P2;SDS_P1;SDS_P2;PMS_P1;PMS_P2;Temp;Humidity;BMP_temperature;BMP_pressure;BME280_temperature;BME280_humidity;BME280_pressure;Samples;Min_cycle;Max_cycle;Signal;HPM_P1;HPM_P2
2022/09/12 04:03:52;;;;;;;;;;;23.50;95.10;;;;;;4997447;28;19956;-82
2022/09/12 04:06:20;;;;;;;;;;;23.60;95.10;;;;;;4997324;28;20016;-82
2022/09/12 04:08:49;;;;;;;;;;;23.50;95.10;;;;;;4997577;28;19945;-82
2022/09/12 04:11:16;;;;;;;;;;;23.60;95.10;;;;;;5000321;28;20005;-81
2022/09/12 04:13:44;;;;;;;;;;;23.60;95.10;;;;;;5000032;28;19969;-81
2022/09/12 04:16:11;;;;;;;;;;;23.60;95.10;;;;;;5000278;28;20020;-82
2022/09/12 04:18:38;;;;;;;;;;;23.60;95.10;;;;;;5000303;28;20016;-81
2022/09/12 04:21:07;;;;;;;;;;;23.50;95.10;;;;;;4999804;28;19948;-77
2022/09/12 04:23:34;;;;;;;;;;;23.50;95.10;;;;;;5000074;28;19936;-80
2022/09/12 04:26:02;;;;;;;;;;;23.50;95.10;;;;;;4999210;28;20025;-80
2022/09/12 04:28:29;;;;;;;;;;;23.60;95.20;;;;;;4999140;28;19926;-81
2022/09/12 04:30:56;;;;;;;;;;;23.50;95.00;;;;;;4998929;28;19966;-76
2022/09/12 04:33:22;;;;;;;;;;;23.50;94.80;;;;;;4999963;28;19965;-80
2022/09/12 04:35:49;;;;;;;;;;;23.50;94.60;;;;;;5000191;28;20012;-84
2022/09/12 04:38:17;;;;;;;;;;;23.50;94.50;;;;;;5000484;28;20304;-83
2022/09/12 04:40:44;;;;;;;;;;;23.50;94.00;;;;;;5000171;28;19989;-83
2022/09/12 04:43:10;;;;;;;;;;;23.40;93.60;;;;;;5000229;28;20021;-83
2022/09/12 04:45:37;;;;;;;;;;;23.30;93.30;;;;;;5000728;28;20020;-86
2022/09/12 04:48:04;;;;;;;;;;;23.30;93.10;;;;;;5001310;28;20358;-86
2022/09/12 04:50:30;;;;;;;;;;;23.30;92.60;;;;;;4999917;28;20017;-86
2022/09/12 04:52:57;;;;;;;;;;;23.30;92.10;;;;;;4999763;28;19984;-84
2022/09/12 04:55:25;;;;;;;;;;;23.20;91.90;;;;;;4998986;28;20020;-85
2022/09/12 04:57:52;;;;;;;;;;;23.20;91.40;;;;;;4998371;28;20032;-84
2022/09/12 05:00:19;;;;;;;;;;;23.10;90.90;;;;;;4998137;28;19932;-84
2022/09/12 05:02:46;;;;;;;;;;;23.10;90.50;;;;;;4998584;28;19973;-83
2022/09/12 05:05:13;;;;;;;;;;;23.10;90.20;;;;;;4998984;28;19976;-86
2022/09/12 05:07:39;;;;;;;;;;;23.10;89.70;;;;;;4998261;28;20016;-86
2022/09/12 05:10:07;;;;;;;;;;;23.10;89.00;;;;;;4999162;28;20013;-86
2022/09/12 05:12:35;;;;;;;;;;;23.00;88.40;;;;;;4998809;28;19973;-86
2022/09/12 05:15:02;;;;;;;;;;;23.10;87.90;;;;;;4999186;28;19926;-85
2022/09/12 05:17:30;;;;;;;;;;;23.00;87.10;;;;;;5010369;28;19926;-82
2022/09/12 05:19:56;;;;;;;;;;;23.10;86.70;;;;;;5012013;28;19961;-84
2022/09/12 05:22:23;;;;;;;;;;;23.10;86.20;;;;;;5014482;28;19968;-83
2022/09/12 05:24:50;;;;;;;;;;;23.10;85.80;;;;;;5015030;28;19961;-83
2022/09/12 05:27:16;;;;;;;;;;;23.10;85.30;;;;;;5008813;28;19926;-82
2022/09/12 05:29:44;;;;;;;;;;;23.10;84.90;;;;;;5007132;28;19968;-83
2022/09/12 05:32:12;;;;;;;;;;;23.10;84.50;;;;;;5004512;28;20278;-82
2022/09/12 05:34:39;;;;;;;;;;;23.10;84.10;;;;;;5004374;28;19933;-84
2022/09/12 05:37:05;;;;;;;;;;;23.10;83.70;;;;;;5002013;28;20305;-83
2022/09/12 05:39:32;;;;;;;;;;;23.10;83.30;;;;;;5001662;28;20381;-83
2022/09/12 05:41:59;;;;;;;;;;;23.10;82.80;;;;;;5002326;28;19980;-84
2022/09/12 05:44:25;;;;;;;;;;;23.10;82.80;;;;;;5001946;28;19968;-84
2022/09/12 05:46:53;;;;;;;;;;;23.10;82.80;;;;;;5002080;28;19957;-84
2022/09/12 05:49:21;;;;;;;;;;;23.10;82.80;;;;;;5001665;28;20017;-84
2022/09/12 05:51:48;;;;;;;;;;;23.10;82.30;;;;;;5002259;28;20068;-84
2022/09/12 05:54:16;;;;;;;;;;;23.10;82.00;;;;;;5001374;28;19953;-83
2022/09/12 05:56:43;;;;;;;;;;;23.10;81.70;;;;;;5001722;28;20365;-83
2022/09/12 05:59:12;;;;;;;;;;;23.10;81.50;;;;;;5001712;28;20013;-83
2022/09/12 06:01:38;;;;;;;;;;;23.10;81.40;;;;;;5001331;28;19957;-83
2022/09/12 06:04:07;;;;;;;;;;;23.10;81.30;;;;;;5001080;28;20420;-83
2022/09/12 06:06:36;;;;;;;;;;;23.20;81.30;;;;;;5000462;28;19984;-83
2022/09/12 06:09:03;;;;;;;;;;;23.20;81.20;;;;;;5002414;28;19933;-80
2022/09/12 06:11:32;;;;;;;;;;;23.20;81.00;;;;;;5003145;28;19933;-80
2022/09/12 06:13:59;;;;;;;;;;;23.20;80.90;;;;;;5002630;28;19933;-78
2022/09/12 06:16:27;;;;;;;;;;;23.20;80.90;;;;;;5000975;28;20397;-78
2022/09/12 06:18:55;;;;;;;;;;;23.20;80.80;;;;;;4998700;28;19936;-78
2022/09/12 06:21:24;;;;;;;;;;;23.20;80.80;;;;;;5000670;28;19926;-78
2022/09/12 06:23:51;;;;;;;;;;;23.20;80.80;;;;;;4999395;28;20009;-78
2022/09/12 06:26:20;;;;;;;;;;;23.20;80.70;;;;;;5000312;28;19965;-76
2022/09/12 06:28:47;;;;;;;;;;;23.30;80.80;;;;;;5001017;28;19926;-81
2022/09/12 06:31:15;;;;;;;;;;;23.30;80.70;;;;;;5001870;28;19929;-81
2022/09/12 06:33:43;;;;;;;;;;;23.30;80.70;;;;;;5002373;28;19933;-79
2022/09/12 06:36:11;;;;;;;;;;;23.30;80.60;;;;;;5000886;28;20292;-78
2022/09/12 06:38:39;;;;;;;;;;;23.30;80.60;;;;;;5000062;28;19926;-78
2022/09/12 06:41:07;;;;;;;;;;;23.30;80.60;;;;;;5000607;28;19932;-82
2022/09/12 06:43:34;;;;;;;;;;;23.30;80.50;;;;;;5000813;28;19968;-81
2022/09/12 06:46:02;;;;;;;;;;;23.30;80.50;;;;;;5000854;28;19926;-81
2022/09/12 06:48:29;;;;;;;;;;;23.30;80.40;;;;;;4998417;28;19981;-80
2022/09/12 06:50:56;;;;;;;;;;;23.30;80.40;;;;;;4998013;28;19926;-80
2022/09/12 06:53:23;;;;;;;;;;;23.30;80.40;;;;;;4997891;28;19925;-80
2022/09/12 06:55:56;;;;;;;;;;;23.30;80.40;;;;;;4997839;28;20017;-80
2022/09/12 06:58:23;;;;;;;;;;;23.30;80.40;;;;;;4997450;28;19933;-80
2022/09/12 07:00:49;;;;;;;;;;;23.30;80.30;;;;;;4996775;28;19932;-80
2022/09/12 07:03:17;;;;;;;;;;;23.30;80.30;;;;;;4996539;28;20386;-80
2022/09/12 07:05:43;;;;;;;;;;;23.30;80.20;;;;;;4997491;28;20321;-80
2022/09/12 07:08:10;;;;;;;;;;;23.30;80.20;;;;;;4996767;28;20390;-80
2022/09/12 07:10:36;;;;;;;;;;;23.30;80.20;;;;;;4996563;28;20420;-80
2022/09/12 07:13:04;;;;;;;;;;;23.30;80.20;;;;;;4996835;28;19926;-80
2022/09/12 07:15:31;;;;;;;;;;;23.30;80.20;;;;;;4996554;28;19932;-80
2022/09/12 07:17:58;;;;;;;;;;;23.30;80.10;;;;;;4996292;28;19973;-80
2022/09/12 07:20:24;;;;;;;;;;;23.30;80.10;;;;;;4996401;28;19960;-80
2022/09/12 07:22:51;;;;;;;;;;;23.30;80.10;;;;;;4996552;28;20025;-80
2022/09/12 07:25:18;;;;;;;;;;;23.30;80.10;;;;;;4996137;28;20036;-80
2022/09/12 07:27:44;;;;;;;;;;;23.30;80.00;;;;;;4996990;28;19933;-80
2022/09/12 07:30:13;;;;;;;;;;;23.30;80.00;;;;;;4996831;28;19976;-80
2022/09/12 07:32:39;;;;;;;;;;;23.30;80.00;;;;;;4996534;28;19925;-80
2022/09/12 07:35:06;;;;;;;;;;;23.30;79.90;;;;;;4996640;28;20024;-80
2022/09/12 07:37:33;;;;;;;;;;;23.30;80.70;;;;;;4996241;28;19965;-80
2022/09/12 07:40:00;;;;;;;;;;;23.30;79.90;;;;;;4996109;28;20009;-80
2022/09/12 07:42:26;;;;;;;;;;;23.30;79.80;;;;;;4996279;28;20381;-80
2022/09/12 07:44:53;;;;;;;;;;;23.30;79.80;;;;;;4999576;28;19968;-78
2022/09/12 07:47:21;;;;;;;;;;;23.30;79.80;;;;;;4999590;28;20393;-78
2022/09/12 07:49:48;;;;;;;;;;;23.30;79.80;;;;;;4999622;28;19925;-78
2022/09/12 07:52:15;;;;;;;;;;;23.30;79.70;;;;;;4999731;28;19926;-78
2022/09/12 07:54:41;;;;;;;;;;;23.30;79.70;;;;;;4999452;28;19952;-78
2022/09/12 07:57:08;;;;;;;;;;;23.30;79.70;;;;;;4999496;28;19965;-78
2022/09/12 07:59:41;;;;;;;;;;;23.30;79.70;;;;;;4999373;28;19933;-78
2022/09/12 08:02:10;;;;;;;;;;;23.30;79.70;;;;;;4999014;28;19976;-78
2022/09/12 08:04:38;;;;;;;;;;;23.30;79.60;;;;;;4999457;28;19926;-78
2022/09/12 08:07:05;;;;;;;;;;;23.30;79.60;;;;;;4999310;28;19932;-78
2022/09/12 08:09:32;;;;;;;;;;;23.30;79.60;;;;;;4999290;28;19984;-78
2022/09/12 08:11:58;;;;;;;;;;;23.30;79.60;;;;;;4998768;28;19932;-78
2022/09/12 08:14:26;;;;;;;;;;;23.30;79.50;;;;;;4998942;28;19976;-78
2022/09/12 08:16:53;;;;;;;;;;;23.30;79.50;;;;;;4999207;28;19976;-78
2022/09/12 08:19:21;;;;;;;;;;;23.30;79.50;;;;;;4999080;28;20004;-78
2022/09/12 08:21:49;;;;;;;;;;;23.30;79.50;;;;;;4999157;28;19930;-78
2022/09/12 08:24:16;;;;;;;;;;;23.30;79.50;;;;;;4999125;28;19936;-78
2022/09/12 08:26:43;;;;;;;;;;;23.30;79.40;;;;;;4999044;28;20009;-78
2022/09/12 08:29:09;;;;;;;;;;;23.30;79.40;;;;;;4998856;28;19926;-78
2022/09/12 08:31:36;;;;;;;;;;;23.30;79.40;;;;;;4998846;28;19925;-78
2022/09/12 08:34:04;;;;;;;;;;;23.30;79.40;;;;;;4997893;28;19969;-78
2022/09/12 08:36:30;;;;;;;;;;;23.30;79.40;;;;;;4998045;28;19930;-78
2022/09/12 08:38:59;;;;;;;;;;;23.30;79.40;;;;;;4997677;28;20385;-78
2022/09/12 08:41:29;;;;;;;;;;;23.30;79.40;;;;;;4998006;28;19926;-78
2022/09/12 08:44:08;;;;;;;;;;;23.30;79.40;;;;;;4997834;28;19926;-78
2022/09/12 08:46:38;;;;;;;;;;;23.30;79.40;;;;;;4998092;28;19926;-78
2022/09/12 08:49:08;;;;;;;;;;;23.30;79.40;;;;;;4997913;28;19961;-78
2022/09/12 08:51:35;;;;;;;;;;;23.30;79.40;;;;;;4997783;28;19925;-78
2022/09/12 08:54:05;;;;;;;;;;;23.30;79.40;;;;;;4997776;28;19965;-78
2022/09/12 08:56:34;;;;;;;;;;;23.30;79.30;;;;;;4997621;28;20389;-80
2022/09/12 08:59:01;;;;;;;;;;;23.30;79.40;;;;;;4998153;28;20016;-80
2022/09/12 09:01:30;;;;;;;;;;;23.30;79.30;;;;;;4997854;28;19925;-78
2022/09/12 09:04:08;;;;;;;;;;;23.30;79.30;;;;;;4997262;28;19926;-78
2022/09/12 09:06:44;;;;;;;;;;;23.30;79.30;;;;;;4997787;28;19947;-78
2022/09/12 09:09:15;;;;;;;;;;;23.30;79.40;;;;;;4997580;28;19981;-78
2022/09/12 09:12:00;;;;;;;;;;;23.30;79.40;;;;;;4997190;28;20093;-78
2022/09/12 09:14:50;;;;;;;;;;;23.30;79.30;;;;;;4997406;28;19929;-78
2022/09/12 09:17:24;;;;;;;;;;;23.30;79.40;;;;;;4988336;28;19926;-78
2022/09/12 09:19:53;;;;;;;;;;;23.30;79.40;;;;;;4997058;28;20328;-78
2022/09/12 09:22:25;;;;;;;;;;;23.30;79.40;;;;;;4997269;28;20012;-78
2022/09/12 09:24:55;;;;;;;;;;;23.30;79.40;;;;;;4996972;28;19977;-78
2022/09/12 09:27:26;;;;;;;;;;;23.30;79.40;;;;;;4997187;28;20013;-78
2022/09/12 09:29:54;;;;;;;;;;;23.30;79.40;;;;;;4996804;28;20378;-78
2022/09/12 09:32:25;;;;;;;;;;;23.30;79.40;;;;;;4996977;28;20292;-78
2022/09/12 09:34:52;;;;;;;;;;;23.30;79.40;;;;;;4997599;28;19932;-78
2022/09/12 09:37:20;;;;;;;;;;;23.30;79.40;;;;;;4997667;28;19980;-78
2022/09/12 09:39:52;;;;;;;;;;;23.30;79.40;;;;;;4997725;28;20020;-78
2022/09/12 09:42:26;;;;;;;;;;;23.30;79.40;;;;;;4996683;28;20369;-78
2022/09/12 09:44:54;;;;;;;;;;;23.30;79.40;;;;;;4997483;28;20416;-78
2022/09/12 09:47:20;;;;;;;;;;;23.30;79.40;;;;;;4997461;28;19932;-78
2022/09/12 09:49:47;;;;;;;;;;;23.30;79.40;;;;;;4997079;28;19977;-78
2022/09/12 09:52:16;;;;;;;;;;;23.30;79.40;;;;;;4997469;28;19996;-78
2022/09/12 09:54:44;;;;;;;;;;;23.30;79.40;;;;;;4997798;28;19926;-78
2022/09/12 09:57:25;;;;;;;;;;;23.30;79.40;;;;;;4997747;28;20296;-78
2022/09/12 09:59:53;;;;;;;;;;;23.30;79.50;;;;;;4999303;28;19976;-78
2022/09/12 10:02:22;;;;;;;;;;;23.40;79.50;;;;;;4997931;28;19930;-78
2022/09/12 10:04:53;;;;;;;;;;;23.30;79.50;;;;;;4997099;28;19926;-78
2022/09/12 10:07:21;;;;;;;;;;;23.30;79.50;;;;;;4996423;28;19977;-78
2022/09/12 10:10:03;;;;;;;;;;;23.40;79.60;;;;;;4996876;28;20412;-78
2022/09/12 10:12:30;;;;;;;;;;;23.30;79.50;;;;;;4996896;28;19926;-78
2022/09/12 10:14:59;;;;;;;;;;;23.40;79.60;;;;;;4996686;28;19984;-78
2022/09/12 10:17:27;;;;;;;;;;;23.40;79.70;;;;;;4996522;28;19980;-78
2022/09/12 10:19:55;;;;;;;;;;;23.40;79.70;;;;;;4996796;28;19929;-78
2022/09/12 10:22:23;;;;;;;;;;;23.30;79.60;;;;;;4996495;28;19926;-78
2022/09/12 10:24:51;;;;;;;;;;;23.30;79.60;;;;;;4997022;28;19926;-78
2022/09/12 10:27:20;;;;;;;;;;;23.40;79.70;;;;;;4997079;28;19937;-78
2022/09/12 10:29:48;;;;;;;;;;;23.40;79.70;;;;;;4996637;28;19932;-78
2022/09/12 10:32:23;;;;;;;;;;;23.40;79.70;;;;;;4996885;28;20024;-78
2022/09/12 10:34:53;;;;;;;;;;;23.40;79.80;;;;;;4999131;28;19933;-81
2022/09/12 10:37:24;;;;;;;;;;;23.40;79.80;;;;;;4998900;28;20016;-79
2022/09/12 10:39:52;;;;;;;;;;;23.30;79.70;;;;;;4998394;28;20025;-79
2022/09/12 10:42:34;;;;;;;;;;;23.40;79.80;;;;;;4996697;28;20278;-79
2022/09/12 10:45:00;;;;;;;;;;;23.40;79.90;;;;;;4997584;28;19926;-80
2022/09/12 10:47:30;;;;;;;;;;;23.40;79.90;;;;;;4997714;28;19976;-79
2022/09/12 10:50:17;;;;;;;;;;;23.40;79.90;;;;;;4997716;28;19929;-79
2022/09/12 10:52:44;;;;;;;;;;;23.40;80.00;;;;;;4997601;28;20012;-78
2022/09/12 10:55:13;;;;;;;;;;;23.40;80.10;;;;;;4996705;28;19969;-78
2022/09/12 10:57:51;;;;;;;;;;;23.40;80.20;;;;;;4996467;28;19932;-78
2022/09/12 11:00:26;;;;;;;;;;;23.40;80.20;;;;;;4996769;28;20042;-78
2022/09/12 11:03:02;;;;;;;;;;;23.40;80.30;;;;;;4995899;28;20025;-78
2022/09/12 11:05:36;;;;;;;;;;;23.40;80.30;;;;;;4996625;28;19926;-78
2022/09/12 11:08:08;;;;;;;;;;;23.40;80.40;;;;;;4996513;28;20024;-78
2022/09/12 11:10:40;;;;;;;;;;;23.40;80.40;;;;;;4995858;28;19948;-78
2022/09/12 11:13:13;;;;;;;;;;;23.40;80.40;;;;;;4996293;28;20020;-78
2022/09/12 11:15:50;;;;;;;;;;;23.40;80.40;;;;;;4997326;28;19926;-78
2022/09/12 11:18:30;;;;;;;;;;;23.40;80.50;;;;;;4999831;28;20371;-79
2022/09/12 11:21:02;;;;;;;;;;;23.40;80.50;;;;;;5000555;28;19926;-78
2022/09/12 11:23:41;;;;;;;;;;;23.40;80.60;;;;;;5000487;28;19926;-79
2022/09/12 11:26:15;;;;;;;;;;;23.40;80.60;;;;;;4998687;28;20517;-80
2022/09/12 11:28:47;;;;;;;;;;;23.40;80.60;;;;;;4998740;28;19926;-80
2022/09/12 11:31:24;;;;;;;;;;;23.50;80.80;;;;;;4997885;28;20033;-78
2022/09/12 11:33:53;;;;;;;;;;;23.40;80.70;;;;;;4997390;28;20411;-78
2022/09/12 11:36:25;;;;;;;;;;;23.50;81.00;;;;;;4997558;28;19926;-78
2022/09/12 11:38:57;;;;;;;;;;;23.50;81.10;;;;;;4996177;28;20342;-78
2022/09/12 11:41:27;;;;;;;;;;;23.50;82.00;;;;;;4995977;28;19933;-78
2022/09/12 11:43:56;;;;;;;;;;;23.50;81.40;;;;;;4997357;28;19932;-78
2022/09/12 11:46:25;;;;;;;;;;;23.50;81.60;;;;;;4996179;28;19933;-78
2022/09/12 11:48:57;;;;;;;;;;;23.50;81.90;;;;;;4998495;28;20444;-78
2022/09/12 11:51:26;;;;;;;;;;;23.60;82.30;;;;;;4999387;28;20349;-79
2022/09/12 11:53:59;;;;;;;;;;;23.60;82.70;;;;;;4998541;28;19957;-78
2022/09/12 11:56:26;;;;;;;;;;;23.60;83.30;;;;;;4999315;28;19972;-79
2022/09/12 11:58:57;;;;;;;;;;;23.70;83.40;;;;;;4997682;28;20042;-78
2022/09/12 12:01:26;;;;;;;;;;;23.70;83.80;;;;;;4994107;28;19930;-77
2022/09/12 12:03:54;;;;;;;;;;;23.70;84.30;;;;;;4994072;28;20369;-76
2022/09/12 12:06:25;;;;;;;;;;;23.80;84.70;;;;;;4994223;28;19926;-76
2022/09/12 12:08:52;;;;;;;;;;;23.80;85.00;;;;;;4995359;28;20273;-76
2022/09/12 12:11:27;;;;;;;;;;;23.80;85.30;;;;;;4994151;28;20304;-76
2022/09/12 12:13:56;;;;;;;;;;;23.80;85.50;;;;;;4994551;28;19948;-77
2022/09/12 12:16:25;;;;;;;;;;;23.80;85.80;;;;;;4997549;28;19926;-76
2022/09/12 12:18:54;;;;;;;;;;;23.80;86.20;;;;;;4999243;28;19925;-76
2022/09/12 12:21:38;;;;;;;;;;;23.80;86.60;;;;;;4997636;28;19986;-76
2022/09/12 12:24:19;;;;;;;;;;;23.80;86.90;;;;;;4997785;28;19926;-74
2022/09/12 12:26:56;;;;;;;;;;;23.80;87.30;;;;;;4998410;28;20021;-75
2022/09/12 12:29:39;;;;;;;;;;;23.80;87.60;;;;;;4997945;28;19926;-74
2022/09/12 12:32:24;;;;;;;;;;;23.80;88.00;;;;;;5000154;28;20102;-73
2022/09/12 12:35:02;;;;;;;;;;;23.90;88.50;;;;;;5001837;28;19976;-78
2022/09/12 12:37:48;;;;;;;;;;;23.80;88.80;;;;;;5001326;28;20008;-78
2022/09/12 12:40:22;;;;;;;;;;;23.80;89.20;;;;;;4999463;28;20036;-77
2022/09/12 12:42:58;;;;;;;;;;;23.80;89.30;;;;;;4997625;28;19976;-77
2022/09/12 12:45:43;;;;;;;;;;;23.80;89.30;;;;;;4997992;28;20017;-78
2022/09/12 12:48:13;;;;;;;;;;;23.90;89.40;;;;;;4998403;28;19933;-78
2022/09/12 12:50:40;;;;;;;;;;;23.90;89.80;;;;;;4998824;28;19965;-78
2022/09/12 12:53:16;;;;;;;;;;;23.90;90.00;;;;;;4999698;28;19976;-78
2022/09/12 12:55:47;;;;;;;;;;;23.90;90.10;;;;;;5000274;28;19949;-78
2022/09/12 12:58:24;;;;;;;;;;;23.90;90.10;;;;;;4998733;28;20018;-78
2022/09/12 13:01:02;;;;;;;;;;;23.90;90.20;;;;;;4998630;28;20311;-78
2022/09/12 13:03:31;;;;;;;;;;;23.90;90.30;;;;;;4999274;28;19936;-79
2022/09/12 13:06:00;;;;;;;;;;;23.90;90.30;;;;;;5004664;28;19965;-79
2022/09/12 13:08:31;;;;;;;;;;;23.90;90.30;;;;;;5004653;28;20281;-79
2022/09/12 13:10:59;;;;;;;;;;;23.90;90.70;;;;;;5005165;28;19926;-78
2022/09/12 13:13:28;;;;;;;;;;;23.90;90.40;;;;;;5005077;28;19984;-79
2022/09/12 13:15:55;;;;;;;;;;;24.00;90.60;;;;;;5006545;28;20370;-80
2022/09/12 13:18:26;;;;;;;;;;;23.90;90.60;;;;;;5000460;28;20016;-78
2022/09/12 13:20:55;;;;;;;;;;;24.00;90.70;;;;;;5003044;28;19933;-78
2022/09/12 13:23:23;;;;;;;;;;;24.00;90.70;;;;;;5008554;28;19926;-82
2022/09/12 13:25:55;;;;;;;;;;;24.00;90.80;;;;;;5007630;28;19934;-77
2022/09/12 13:28:22;;;;;;;;;;;24.00;90.80;;;;;;5003281;28;19926;-78
2022/09/12 13:30:56;;;;;;;;;;;24.00;90.80;;;;;;4998411;28;19936;-78
2022/09/12 13:33:28;;;;;;;;;;;24.00;90.80;;;;;;5003793;28;19926;-77
2022/09/12 13:36:03;;;;;;;;;;;24.10;90.90;;;;;;5004150;28;19926;-76
2022/09/12 13:38:37;;;;;;;;;;;24.00;90.80;;;;;;5001581;28;19930;-76
2022/09/12 13:41:16;;;;;;;;;;;24.00;90.80;;;;;;5001353;28;19926;-78
2022/09/12 13:43:45;;;;;;;;;;;24.10;90.80;;;;;;5001485;28;19985;-77
2022/09/12 13:46:15;;;;;;;;;;;24.00;90.80;;;;;;5001593;28;19941;-77
2022/09/12 13:48:42;;;;;;;;;;;24.00;90.70;;;;;;5001338;28;19926;-76
2022/09/12 13:51:19;;;;;;;;;;;24.00;90.70;;;;;;5002404;28;19976;-77
2022/09/12 13:53:47;;;;;;;;;;;24.00;90.70;;;;;;5002533;28;20565;-78
2022/09/12 13:56:18;;;;;;;;;;;24.00;90.60;;;;;;5002883;28;19932;-78
2022/09/12 13:58:53;;;;;;;;;;;24.10;90.60;;;;;;5003156;28;20329;-77
2022/09/12 14:01:21;;;;;;;;;;;24.00;90.60;;;;;;5001039;28;19936;-78
2022/09/12 14:06:37;;;;;;;;;;;24.00;90.50;;;;;;4996893;28;20391;-77
2022/09/12 14:09:12;;;;;;;;;;;24.00;90.50;;;;;;4996259;28;20012;-77
2022/09/12 14:11:40;;;;;;;;;;;24.00;90.50;;;;;;4997337;28;19926;-77
2022/09/12 14:14:18;;;;;;;;;;;24.00;90.50;;;;;;4998446;28;20012;-78
2022/09/12 14:16:44;;;;;;;;;;;24.00;90.40;;;;;;4997970;28;19965;-78
2022/09/12 14:19:17;;;;;;;;;;;24.00;90.40;;;;;;4997926;28;20020;-78
2022/09/12 14:21:44;;;;;;;;;;;24.00;90.30;;;;;;4997335;28;19926;-78
2022/09/12 14:24:12;;;;;;;;;;;24.00;90.30;;;;;;4997207;28;19969;-75
2022/09/12 14:26:42;;;;;;;;;;;24.00;90.20;;;;;;4998076;28;19977;-75
2022/09/12 14:29:12;;;;;;;;;;;24.00;90.20;;;;;;4997981;28;19925;-75
2022/09/12 14:31:40;;;;;;;;;;;24.00;90.20;;;;;;4997500;28;20306;-75
2022/09/12 14:34:10;;;;;;;;;;;24.00;90.20;;;;;;4998039;28;19926;-75
2022/09/12 14:36:40;;;;;;;;;;;24.00;90.20;;;;;;4999876;28;19965;-75
2022/09/12 14:39:15;;;;;;;;;;;24.00;90.20;;;;;;4998469;28;19965;-75
2022/09/12 14:41:45;;;;;;;;;;;24.00;90.10;;;;;;5001417;28;19930;-75
2022/09/12 14:44:18;;;;;;;;;;;24.00;90.10;;;;;;5003780;28;19969;-80
2022/09/12 14:46:45;;;;;;;;;;;24.00;90.20;;;;;;5002605;28;19926;-79
2022/09/12 14:49:15;;;;;;;;;;;24.00;90.20;;;;;;5004549;28;20309;-79
2022/09/12 14:51:46;;;;;;;;;;;24.00;90.10;;;;;;5004584;28;19929;-79
2022/09/12 14:54:36;;;;;;;;;;;24.00;90.10;;;;;;5004035;28;19925;-79
2022/09/12 14:57:05;;;;;;;;;;;24.00;90.10;;;;;;5005318;28;19926;-79
2022/09/12 14:59:37;;;;;;;;;;;24.00;90.20;;;;;;5004749;28;19925;-79
2022/09/12 15:02:32;;;;;;;;;;;24.00;90.20;;;;;;5008142;28;19932;-77
2022/09/12 15:05:14;;;;;;;;;;;24.00;90.20;;;;;;4973463;28;19972;-78
2022/09/12 15:07:41;;;;;;;;;;;24.00;90.20;;;;;;5004591;28;20025;-80
2022/09/12 15:10:15;;;;;;;;;;;23.90;90.20;;;;;;5000257;28;19926;-81
2022/09/12 15:12:43;;;;;;;;;;;23.90;90.20;;;;;;4999075;28;19929;-76
2022/09/12 15:15:13;;;;;;;;;;;24.00;90.20;;;;;;4998391;28;19989;-75
2022/09/12 15:17:40;;;;;;;;;;;23.90;90.20;;;;;;4998463;28;19976;-80
2022/09/12 15:20:07;;;;;;;;;;;23.90;90.20;;;;;;4998399;28;19977;-81
2022/09/12 15:22:34;;;;;;;;;;;23.90;90.30;;;;;;4997933;28;20020;-80
2022/09/12 15:25:01;;;;;;;;;;;23.90;90.30;;;;;;4998373;28;20016;-80
2022/09/12 15:27:28;;;;;;;;;;;23.90;90.30;;;;;;4999051;28;19926;-81
2022/09/12 15:29:56;;;;;;;;;;;24.00;90.30;;;;;;4998307;28;19934;-81
2022/09/12 15:32:23;;;;;;;;;;;23.90;90.30;;;;;;4998388;28;19932;-81
2022/09/12 15:34:51;;;;;;;;;;;23.90;90.30;;;;;;4998033;28;19926;-80
2022/09/12 15:37:19;;;;;;;;;;;23.90;90.30;;;;;;4997933;28;20404;-81
2022/09/12 15:39:45;;;;;;;;;;;23.90;90.30;;;;;;4999002;28;20344;-80
2022/09/12 15:42:12;;;;;;;;;;;23.90;90.40;;;;;;4999289;28;20024;-81
2022/09/12 15:44:39;;;;;;;;;;;23.90;90.40;;;;;;4999008;28;20004;-82
2022/09/12 15:47:09;;;;;;;;;;;23.90;90.40;;;;;;4999397;28;19926;-82
2022/09/12 15:49:36;;;;;;;;;;;23.90;90.40;;;;;;5000041;28;20024;-81
2022/09/12 15:52:02;;;;;;;;;;;23.90;90.50;;;;;;4998564;28;20102;-81
2022/09/12 15:54:29;;;;;;;;;;;23.90;90.50;;;;;;4999639;28;19968;-76
2022/09/12 15:56:56;;;;;;;;;;;23.90;90.50;;;;;;4998358;28;19930;-75
2022/09/12 15:59:22;;;;;;;;;;;23.90;90.50;;;;;;4994456;28;19926;-76
2022/09/12 16:01:49;;;;;;;;;;;23.90;90.50;;;;;;4994663;28;20238;-78
2022/09/12 16:04:22;;;;;;;;;;;23.90;90.50;;;;;;4996557;28;19960;-77
2022/09/12 16:06:49;;;;;;;;;;;23.90;90.60;;;;;;5001357;28;19926;-77
2022/09/12 16:09:15;;;;;;;;;;;23.90;90.60;;;;;;5000893;28;19930;-76
2022/09/12 16:11:43;;;;;;;;;;;23.90;90.60;;;;;;5001302;28;20020;-75
2022/09/12 16:14:13;;;;;;;;;;;23.90;90.60;;;;;;5001947;28;19930;-74
2022/09/12 16:16:40;;;;;;;;;;;23.90;90.60;;;;;;5001771;28;20012;-75
2022/09/12 16:19:08;;;;;;;;;;;23.90;90.50;;;;;;4999097;28;19981;-74
2022/09/12 16:21:36;;;;;;;;;;;23.90;90.50;;;;;;4998096;28;19984;-74
2022/09/12 16:24:03;;;;;;;;;;;23.90;90.50;;;;;;4998088;28;19926;-73
2022/09/12 16:26:30;;;;;;;;;;;23.90;90.40;;;;;;4997800;28;20412;-74
2022/09/12 16:28:57;;;;;;;;;;;23.80;90.70;;;;;;4998036;28;20024;-74
2022/09/12 16:31:24;;;;;;;;;;;23.80;90.30;;;;;;4997573;28;20424;-75
2022/09/12 16:33:50;;;;;;;;;;;23.80;90.20;;;;;;4998091;28;19932;-75
2022/09/12 16:36:18;;;;;;;;;;;23.80;90.20;;;;;;4997885;28;19961;-76
2022/09/12 16:38:47;;;;;;;;;;;23.80;90.20;;;;;;4997854;28;19926;-74
2022/09/12 16:41:14;;;;;;;;;;;23.80;90.10;;;;;;4997809;28;19925;-75
2022/09/12 16:43:41;;;;;;;;;;;23.80;90.10;;;;;;4998400;28;19933;-75
2022/09/12 16:46:09;;;;;;;;;;;23.80;90.10;;;;;;4998184;28;19925;-76
2022/09/12 16:48:36;;;;;;;;;;;23.80;90.10;;;;;;4999386;28;19926;-79
2022/09/12 16:51:04;;;;;;;;;;;23.80;90.10;;;;;;5003073;28;19926;-80
2022/09/12 16:53:30;;;;;;;;;;;23.80;90.10;;;;;;5011376;28;19964;-80
2022/09/12 16:55:58;;;;;;;;;;;23.80;90.10;;;;;;5011526;28;20020;-80
2022/09/12 16:58:25;;;;;;;;;;;23.80;90.10;;;;;;5010989;28;19926;-80
2022/09/12 17:00:59;;;;;;;;;;;23.80;90.10;;;;;;5006865;28;19930;-80
2022/09/12 17:03:26;;;;;;;;;;;23.80;90.00;;;;;;5002347;28;19977;-80
2022/09/12 17:05:57;;;;;;;;;;;23.80;90.00;;;;;;5002119;28;19930;-80
2022/09/12 17:08:23;;;;;;;;;;;23.80;90.00;;;;;;5001558;28;19926;-80
2022/09/12 17:10:50;;;;;;;;;;;23.80;89.90;;;;;;5001725;28;20017;-80
2022/09/12 17:13:18;;;;;;;;;;;23.80;89.70;;;;;;5001623;28;19932;-80
2022/09/12 17:15:45;;;;;;;;;;;23.80;89.70;;;;;;5000360;28;19926;-80
2022/09/12 17:18:12;;;;;;;;;;;23.80;89.60;;;;;;5001585;28;19936;-81
2022/09/12 17:20:38;;;;;;;;;;;23.80;89.40;;;;;;5001444;28;19961;-80
2022/09/12 17:23:05;;;;;;;;;;;23.80;89.30;;;;;;5000839;28;20029;-81
2022/09/12 17:25:32;;;;;;;;;;;23.70;89.10;;;;;;5001083;28;20448;-81
2022/09/12 17:27:59;;;;;;;;;;;23.70;89.10;;;;;;4999899;28;19932;-80
2022/09/12 17:30:27;;;;;;;;;;;23.70;89.10;;;;;;5000396;28;20004;-81
2022/09/12 17:32:53;;;;;;;;;;;23.70;89.20;;;;;;5001241;28;20012;-82
2022/09/12 17:35:20;;;;;;;;;;;23.70;89.10;;;;;;5001067;28;19926;-81
2022/09/12 17:37:47;;;;;;;;;;;23.70;89.10;;;;;;5000847;28;19932;-81
2022/09/12 17:40:13;;;;;;;;;;;23.70;89.10;;;;;;5001091;28;20041;-81
2022/09/12 17:42:42;;;;;;;;;;;23.70;89.10;;;;;;5000425;28;20013;-81
2022/09/12 17:45:11;;;;;;;;;;;23.70;89.10;;;;;;5000414;28;19926;-82
2022/09/12 17:47:39;;;;;;;;;;;23.70;88.90;;;;;;4999760;28;19957;-81
2022/09/12 17:50:06;;;;;;;;;;;23.70;88.80;;;;;;5000086;28;19994;-81
2022/09/12 17:52:32;;;;;;;;;;;23.70;88.70;;;;;;4999684;28;20364;-81
2022/09/12 17:54:59;;;;;;;;;;;23.70;88.60;;;;;;5000296;28;19926;-81
2022/09/12 17:57:26;;;;;;;;;;;23.70;88.60;;;;;;4999960;28;20012;-82
2022/09/12 17:59:52;;;;;;;;;;;23.70;88.50;;;;;;5000013;28;19969;-81
2022/09/12 18:02:18;;;;;;;;;;;23.70;88.40;;;;;;4999772;28;19926;-82
2022/09/12 18:04:47;;;;;;;;;;;23.70;88.40;;;;;;4999930;28;20352;-80
2022/09/12 18:07:14;;;;;;;;;;;23.70;88.40;;;;;;4996585;28;20036;-79
2022/09/12 18:09:41;;;;;;;;;;;23.70;88.30;;;;;;4996437;28;19949;-79
2022/09/12 18:12:07;;;;;;;;;;;23.70;88.30;;;;;;4996306;28;19932;-79
2022/09/12 18:14:34;;;;;;;;;;;23.70;88.20;;;;;;4996006;28;20012;-79
2022/09/12 18:17:01;;;;;;;;;;;23.60;88.20;;;;;;4998599;28;20012;-79
2022/09/12 18:19:28;;;;;;;;;;;23.60;88.20;;;;;;5004581;28;20352;-79
2022/09/12 18:21:56;;;;;;;;;;;23.60;88.10;;;;;;4997685;28;19926;-79
2022/09/12 18:24:23;;;;;;;;;;;23.70;88.20;;;;;;4997580;28;20036;-79
2022/09/12 18:26:49;;;;;;;;;;;23.60;88.10;;;;;;4995769;28;20386;-79
2022/09/12 18:29:18;;;;;;;;;;;23.70;88.20;;;;;;4996999;28;20449;-79
2022/09/12 18:31:45;;;;;;;;;;;23.60;88.10;;;;;;4997716;28;19926;-80
2022/09/12 18:34:12;;;;;;;;;;;23.70;88.20;;;;;;4997387;28;19926;-80